sensor_id;sensor_type;location;lat;lon;timestamp;P1;durP1;ratioP1;P2;durP2;ratioP2
26588;SDS011;14235;48.532;8.722;2023-02-28T00:00:45;3.87;;;2.60;;
26588;SDS011;14235;48.532;8.722;2023-02-28T00:03:11;3.97;;;2.80;;
26588;SDS011;14235;48.532;8.722;2023-02-28T00:05:36;2.90;;;2.60;;
26588;SDS011;14235;48.532;8.722;2023-02-28T00:08:02;2.50;;;2.30;;
26588;SDS011;14235;48.532;8.722;2023-02-28T00:10:30;2.43;;;2.23;;
26588;SDS011;14235;48.532;8.722;2023-02-28T00:12:59;2.43;;;2.23;;
26588;SDS011;14235;48.532;8.722;2023-02-28T00:15:26;2.50;;;2.30;;
26588;SDS011;14235;48.532;8.722;2023-02-28T00:17:52;2.97;;;2.67;;
26588;SDS011;14235;48.532;8.722;2023-02-28T00:20:18;2.60;;;2.40;;
26588;SDS011;14235;48.532;8.722;2023-02-28T00:22:49;3.73;;;2.40;;
26588;SDS011;14235;48.532;8.722;2023-02-28T00:25:17;2.67;;;2.43;;
26588;SDS011;14235;48.532;8.722;2023-02-28T00:27:45;4.03;;;2.50;;
26588;SDS011;14235;48.532;8.722;2023-02-28T00:30:12;2.47;;;2.27;;
26588;SDS011;14235;48.532;8.722;2023-02-28T00:32:42;2.50;;;2.30;;
26588;SDS011;14235;48.532;8.722;2023-02-28T00:35:08;2.40;;;2.10;;
26588;SDS011;14235;48.532;8.722;2023-02-28T00:37:35;2.60;;;2.40;;
26588;SDS011;14235;48.532;8.722;2023-02-28T00:40:01;3.77;;;2.60;;
26588;SDS011;14235;48.532;8.722;2023-02-28T00:42:29;3.17;;;2.47;;
26588;SDS011;14235;48.532;8.722;2023-02-28T00:44:55;3.40;;;2.20;;
26588;SDS011;14235;48.532;8.722;2023-02-28T00:47:21;2.30;;;2.13;;
26588;SDS011;14235;48.532;8.722;2023-02-28T00:49:46;2.43;;;2.23;;
26588;SDS011;14235;48.532;8.722;2023-02-28T00:52:13;2.90;;;2.30;;
26588;SDS011;14235;48.532;8.722;2023-02-28T00:54:38;2.23;;;2.03;;
26588;SDS011;14235;48.532;8.722;2023-02-28T00:57:04;2.80;;;2.40;;
26588;SDS011;14235;48.532;8.722;2023-02-28T00:59:30;3.00;;;2.60;;
26588;SDS011;14235;48.532;8.722;2023-02-28T01:01:55;2.77;;;2.50;;
26588;SDS011;14235;48.532;8.722;2023-02-28T01:04:21;2.87;;;2.40;;
26588;SDS011;14235;48.532;8.722;2023-02-28T01:06:47;2.60;;;2.40;;
26588;SDS011;14235;48.532;8.722;2023-02-28T01:09:12;2.83;;;2.47;;
26588;SDS011;14235;48.532;8.722;2023-02-28T01:11:38;2.47;;;2.27;;
26588;SDS011;14235;48.532;8.722;2023-02-28T01:14:06;2.80;;;2.40;;
26588;SDS011;14235;48.532;8.722;2023-02-28T01:16:32;2.63;;;2.43;;
26588;SDS011;14235;48.532;8.722;2023-02-28T01:18:57;2.93;;;2.73;;
26588;SDS011;14235;48.532;8.722;2023-02-28T01:21:23;3.23;;;2.90;;
26588;SDS011;14235;48.532;8.722;2023-02-28T01:23:51;2.53;;;2.33;;
26588;SDS011;14235;48.532;8.722;2023-02-28T01:26:18;2.67;;;2.47;;
26588;SDS011;14235;48.532;8.722;2023-02-28T01:28:45;2.77;;;2.57;;
26588;SDS011;14235;48.532;8.722;2023-02-28T01:31:12;3.13;;;2.23;;
26588;SDS011;14235;48.532;8.722;2023-02-28T01:33:38;3.17;;;2.50;;
26588;SDS011;14235;48.532;8.722;2023-02-28T01:36:06;3.07;;;2.77;;
26588;SDS011;14235;48.532;8.722;2023-02-28T01:38:36;2.70;;;2.50;;
26588;SDS011;14235;48.532;8.722;2023-02-28T01:41:02;3.50;;;2.57;;
26588;SDS011;14235;48.532;8.722;2023-02-28T01:43:29;4.43;;;2.47;;
26588;SDS011;14235;48.532;8.722;2023-02-28T01:45:57;2.60;;;2.40;;
26588;SDS011;14235;48.532;8.722;2023-02-28T01:48:31;2.77;;;2.57;;
26588;SDS011;14235;48.532;8.722;2023-02-28T01:51:01;3.37;;;3.07;;
26588;SDS011;14235;48.532;8.722;2023-02-28T01:53:35;2.53;;;2.33;;
26588;SDS011;14235;48.532;8.722;2023-02-28T01:56:04;2.73;;;2.23;;
26588;SDS011;14235;48.532;8.722;2023-02-28T01:58:32;3.43;;;2.37;;
26588;SDS011;14235;48.532;8.722;2023-02-28T02:00:58;2.77;;;2.30;;
26588;SDS011;14235;48.532;8.722;2023-02-28T02:03:23;4.03;;;2.40;;
26588;SDS011;14235;48.532;8.722;2023-02-28T02:05:49;2.57;;;2.37;;
26588;SDS011;14235;48.532;8.722;2023-02-28T02:08:19;3.17;;;2.40;;
26588;SDS011;14235;48.532;8.722;2023-02-28T02:10:52;3.03;;;2.73;;
26588;SDS011;14235;48.532;8.722;2023-02-28T02:18:43;2.73;;;2.53;;
26588;SDS011;14235;48.532;8.722;2023-02-28T02:23:55;3.50;;;2.60;;
26588;SDS011;14235;48.532;8.722;2023-02-28T02:26:45;4.40;;;2.40;;
26588;SDS011;14235;48.532;8.722;2023-02-28T02:38:02;5.37;;;2.83;;
26588;SDS011;14235;48.532;8.722;2023-02-28T02:40:48;4.40;;;2.90;;
26588;SDS011;14235;48.532;8.722;2023-02-28T02:43:37;3.77;;;3.30;;
26588;SDS011;14235;48.532;8.722;2023-02-28T02:46:17;3.07;;;2.80;;
26588;SDS011;14235;48.532;8.722;2023-02-28T02:48:54;3.40;;;3.10;;
26588;SDS011;14235;48.532;8.722;2023-02-28T02:51:23;5.23;;;2.73;;
26588;SDS011;14235;48.532;8.722;2023-02-28T02:53:52;3.73;;;3.00;;
26588;SDS011;14235;48.532;8.722;2023-02-28T02:56:23;3.13;;;2.77;;
26588;SDS011;14235;48.532;8.722;2023-02-28T02:58:52;2.93;;;2.73;;
26588;SDS011;14235;48.532;8.722;2023-02-28T03:01:22;3.80;;;3.20;;
26588;SDS011;14235;48.532;8.722;2023-02-28T03:07:19;4.40;;;3.30;;
26588;SDS011;14235;48.532;8.722;2023-02-28T03:09:52;3.10;;;2.90;;
26588;SDS011;14235;48.532;8.722;2023-02-28T03:12:42;3.77;;;3.30;;
26588;SDS011;14235;48.532;8.722;2023-02-28T03:27:26;4.00;;;2.97;;
26588;SDS011;14235;48.532;8.722;2023-02-28T03:33:54;4.03;;;2.97;;
26588;SDS011;14235;48.532;8.722;2023-02-28T03:36:26;3.30;;;3.00;;
26588;SDS011;14235;48.532;8.722;2023-02-28T03:38:59;4.37;;;3.27;;
26588;SDS011;14235;48.532;8.722;2023-02-28T03:41:45;3.40;;;3.00;;
26588;SDS011;14235;48.532;8.722;2023-02-28T03:44:18;4.50;;;3.67;;
26588;SDS011;14235;48.532;8.722;2023-02-28T03:46:58;3.70;;;3.40;;
26588;SDS011;14235;48.532;8.722;2023-02-28T03:49:32;6.63;;;3.43;;
26588;SDS011;14235;48.532;8.722;2023-02-28T03:52:02;3.37;;;3.07;;
26588;SDS011;14235;48.532;8.722;2023-02-28T03:54:31;4.37;;;3.50;;
26588;SDS011;14235;48.532;8.722;2023-02-28T03:57:07;3.63;;;3.20;;
26588;SDS011;14235;48.532;8.722;2023-02-28T03:59:43;5.53;;;3.37;;
26588;SDS011;14235;48.532;8.722;2023-02-28T04:02:12;4.30;;;3.47;;
26588;SDS011;14235;48.532;8.722;2023-02-28T04:04:38;3.80;;;3.37;;
26588;SDS011;14235;48.532;8.722;2023-02-28T04:07:10;4.37;;;3.57;;
26588;SDS011;14235;48.532;8.722;2023-02-28T04:09:36;5.17;;;3.73;;
26588;SDS011;14235;48.532;8.722;2023-02-28T04:12:02;4.67;;;3.60;;
26588;SDS011;14235;48.532;8.722;2023-02-28T04:14:28;3.50;;;3.20;;
26588;SDS011;14235;48.532;8.722;2023-02-28T04:16:54;4.03;;;3.43;;
26588;SDS011;14235;48.532;8.722;2023-02-28T04:19:19;3.63;;;3.30;;
26588;SDS011;14235;48.532;8.722;2023-02-28T04:21:46;5.43;;;3.97;;
26588;SDS011;14235;48.532;8.722;2023-02-28T04:24:14;4.93;;;3.50;;
26588;SDS011;14235;48.532;8.722;2023-02-28T04:26:43;4.63;;;3.80;;
26588;SDS011;14235;48.532;8.722;2023-02-28T04:29:21;4.23;;;3.83;;
26588;SDS011;14235;48.532;8.722;2023-02-28T04:31:57;3.97;;;3.67;;
26588;SDS011;14235;48.532;8.722;2023-02-28T04:34:24;4.93;;;3.80;;
26588;SDS011;14235;48.532;8.722;2023-02-28T04:36:51;4.40;;;3.90;;
26588;SDS011;14235;48.532;8.722;2023-02-28T04:39:19;5.70;;;4.07;;
26588;SDS011;14235;48.532;8.722;2023-02-28T04:41:46;4.40;;;3.97;;
26588;SDS011;14235;48.532;8.722;2023-02-28T04:44:11;5.60;;;4.10;;
26588;SDS011;14235;48.532;8.722;2023-02-28T04:46:37;4.20;;;3.80;;
26588;SDS011;14235;48.532;8.722;2023-02-28T04:49:03;5.07;;;4.57;;
26588;SDS011;14235;48.532;8.722;2023-02-28T04:51:29;3.90;;;3.60;;
26588;SDS011;14235;48.532;8.722;2023-02-28T04:53:54;4.73;;;4.30;;
26588;SDS011;14235;48.532;8.722;2023-02-28T04:56:20;4.37;;;3.57;;
26588;SDS011;14235;48.532;8.722;2023-02-28T04:58:46;4.87;;;4.20;;
26588;SDS011;14235;48.532;8.722;2023-02-28T05:01:17;4.77;;;4.33;;
26588;SDS011;14235;48.532;8.722;2023-02-28T05:03:48;4.90;;;4.40;;
26588;SDS011;14235;48.532;8.722;2023-02-28T05:06:14;4.70;;;4.27;;
26588;SDS011;14235;48.532;8.722;2023-02-28T05:08:40;6.90;;;4.50;;
26588;SDS011;14235;48.532;8.722;2023-02-28T05:11:07;4.50;;;3.97;;
26588;SDS011;14235;48.532;8.722;2023-02-28T05:14:00;4.80;;;4.17;;
26588;SDS011;14235;48.532;8.722;2023-02-28T05:16:26;5.13;;;4.37;;
26588;SDS011;14235;48.532;8.722;2023-02-28T05:18:52;5.07;;;4.30;;
26588;SDS011;14235;48.532;8.722;2023-02-28T05:21:26;6.03;;;4.67;;
26588;SDS011;14235;48.532;8.722;2023-02-28T05:24:00;4.70;;;4.20;;
26588;SDS011;14235;48.532;8.722;2023-02-28T05:26:29;6.13;;;4.37;;
26588;SDS011;14235;48.532;8.722;2023-02-28T05:28:55;6.33;;;4.43;;
26588;SDS011;14235;48.532;8.722;2023-02-28T05:31:21;6.73;;;4.83;;
26588;SDS011;14235;48.532;8.722;2023-02-28T05:33:49;4.93;;;4.30;;
26588;SDS011;14235;48.532;8.722;2023-02-28T05:36:15;5.73;;;4.70;;
26588;SDS011;14235;48.532;8.722;2023-02-28T05:38:40;4.83;;;4.37;;
26588;SDS011;14235;48.532;8.722;2023-02-28T05:41:07;6.63;;;4.80;;
26588;SDS011;14235;48.532;8.722;2023-02-28T05:43:34;5.07;;;4.57;;
26588;SDS011;14235;48.532;8.722;2023-02-28T05:46:07;4.93;;;4.53;;
26588;SDS011;14235;48.532;8.722;2023-02-28T05:48:34;4.90;;;4.40;;
26588;SDS011;14235;48.532;8.722;2023-02-28T05:51:01;5.17;;;4.63;;
26588;SDS011;14235;48.532;8.722;2023-02-28T05:53:28;5.20;;;4.70;;
26588;SDS011;14235;48.532;8.722;2023-02-28T05:55:54;6.10;;;5.20;;
26588;SDS011;14235;48.532;8.722;2023-02-28T05:58:20;5.90;;;4.77;;
26588;SDS011;14235;48.532;8.722;2023-02-28T06:00:46;5.80;;;5.10;;
26588;SDS011;14235;48.532;8.722;2023-02-28T06:03:12;7.07;;;5.03;;
26588;SDS011;14235;48.532;8.722;2023-02-28T06:05:38;5.60;;;5.00;;
26588;SDS011;14235;48.532;8.722;2023-02-28T06:08:03;5.97;;;5.00;;
26588;SDS011;14235;48.532;8.722;2023-02-28T06:10:32;5.17;;;4.67;;
26588;SDS011;14235;48.532;8.722;2023-02-28T06:13:01;7.97;;;5.80;;
26588;SDS011;14235;48.532;8.722;2023-02-28T06:15:28;6.03;;;5.30;;
26588;SDS011;14235;48.532;8.722;2023-02-28T06:17:54;6.53;;;5.17;;
26588;SDS011;14235;48.532;8.722;2023-02-28T06:20:21;7.70;;;5.30;;
26588;SDS011;14235;48.532;8.722;2023-02-28T06:22:48;5.97;;;5.20;;
26588;SDS011;14235;48.532;8.722;2023-02-28T06:25:15;6.50;;;5.57;;
26588;SDS011;14235;48.532;8.722;2023-02-28T06:27:41;7.20;;;5.27;;
26588;SDS011;14235;48.532;8.722;2023-02-28T06:30:08;6.20;;;5.50;;
26588;SDS011;14235;48.532;8.722;2023-02-28T06:32:35;6.23;;;5.23;;
26588;SDS011;14235;48.532;8.722;2023-02-28T06:35:01;6.70;;;5.10;;
26588;SDS011;14235;48.532;8.722;2023-02-28T06:37:26;6.27;;;5.27;;
26588;SDS011;14235;48.532;8.722;2023-02-28T06:39:53;6.53;;;5.87;;
26588;SDS011;14235;48.532;8.722;2023-02-28T06:42:21;6.20;;;5.30;;
26588;SDS011;14235;48.532;8.722;2023-02-28T06:44:49;7.10;;;5.43;;
26588;SDS011;14235;48.532;8.722;2023-02-28T06:47:16;6.23;;;5.17;;
26588;SDS011;14235;48.532;8.722;2023-02-28T06:49:41;7.03;;;5.80;;
26588;SDS011;14235;48.532;8.722;2023-02-28T06:52:07;5.93;;;5.33;;
26588;SDS011;14235;48.532;8.722;2023-02-28T06:54:35;6.77;;;5.53;;
26588;SDS011;14235;48.532;8.722;2023-02-28T06:57:01;9.40;;;6.40;;
26588;SDS011;14235;48.532;8.722;2023-02-28T06:59:27;8.73;;;6.40;;
26588;SDS011;14235;48.532;8.722;2023-02-28T07:01:53;7.93;;;6.10;;
26588;SDS011;14235;48.532;8.722;2023-02-28T07:04:19;8.00;;;5.53;;
26588;SDS011;14235;48.532;8.722;2023-02-28T07:06:45;9.00;;;7.20;;
26588;SDS011;14235;48.532;8.722;2023-02-28T07:09:11;7.90;;;7.10;;
26588;SDS011;14235;48.532;8.722;2023-02-28T07:11:37;6.97;;;6.27;;
26588;SDS011;14235;48.532;8.722;2023-02-28T07:14:02;6.20;;;5.60;;
26588;SDS011;14235;48.532;8.722;2023-02-28T07:16:28;7.87;;;6.77;;
26588;SDS011;14235;48.532;8.722;2023-02-28T07:18:54;7.97;;;6.40;;
26588;SDS011;14235;48.532;8.722;2023-02-28T07:21:20;6.77;;;6.13;;
26588;SDS011;14235;48.532;8.722;2023-02-28T07:23:45;6.67;;;5.97;;
26588;SDS011;14235;48.532;8.722;2023-02-28T07:26:12;8.17;;;5.97;;
26588;SDS011;14235;48.532;8.722;2023-02-28T07:28:40;6.63;;;5.93;;
26588;SDS011;14235;48.532;8.722;2023-02-28T07:31:07;9.83;;;6.50;;
26588;SDS011;14235;48.532;8.722;2023-02-28T07:33:33;7.47;;;6.30;;
26588;SDS011;14235;48.532;8.722;2023-02-28T07:36:03;6.90;;;6.03;;
26588;SDS011;14235;48.532;8.722;2023-02-28T07:38:30;7.83;;;6.47;;
26588;SDS011;14235;48.532;8.722;2023-02-28T07:40:58;6.37;;;5.70;;
26588;SDS011;14235;48.532;8.722;2023-02-28T07:43:23;8.07;;;6.00;;
26588;SDS011;14235;48.532;8.722;2023-02-28T07:45:49;8.57;;;6.27;;
26588;SDS011;14235;48.532;8.722;2023-02-28T07:48:14;6.80;;;6.10;;
26588;SDS011;14235;48.532;8.722;2023-02-28T07:50:40;9.23;;;6.33;;
26588;SDS011;14235;48.532;8.722;2023-02-28T07:53:06;8.67;;;6.30;;
26588;SDS011;14235;48.532;8.722;2023-02-28T07:55:31;7.60;;;6.17;;
26588;SDS011;14235;48.532;8.722;2023-02-28T07:57:57;7.70;;;6.47;;
26588;SDS011;14235;48.532;8.722;2023-02-28T08:00:23;7.57;;;6.20;;
26588;SDS011;14235;48.532;8.722;2023-02-28T08:02:49;7.30;;;6.27;;
26588;SDS011;14235;48.532;8.722;2023-02-28T08:05:14;9.60;;;6.70;;
26588;SDS011;14235;48.532;8.722;2023-02-28T08:07:40;9.03;;;7.27;;
26588;SDS011;14235;48.532;8.722;2023-02-28T08:10:06;8.03;;;6.33;;
26588;SDS011;14235;48.532;8.722;2023-02-28T08:12:34;8.10;;;6.57;;
26588;SDS011;14235;48.532;8.722;2023-02-28T08:15:00;7.47;;;6.53;;
26588;SDS011;14235;48.532;8.722;2023-02-28T08:17:26;8.00;;;6.50;;
26588;SDS011;14235;48.532;8.722;2023-02-28T08:19:52;8.30;;;6.57;;
26588;SDS011;14235;48.532;8.722;2023-02-28T08:22:18;8.93;;;6.97;;
26588;SDS011;14235;48.532;8.722;2023-02-28T08:24:44;9.57;;;6.80;;
26588;SDS011;14235;48.532;8.722;2023-02-28T08:27:09;7.80;;;6.60;;
26588;SDS011;14235;48.532;8.722;2023-02-28T08:29:38;8.47;;;7.13;;
26588;SDS011;14235;48.532;8.722;2023-02-28T08:32:04;8.10;;;7.27;;
26588;SDS011;14235;48.532;8.722;2023-02-28T08:34:31;9.73;;;7.80;;
26588;SDS011;14235;48.532;8.722;2023-02-28T08:36:56;7.13;;;6.23;;
26588;SDS011;14235;48.532;8.722;2023-02-28T08:39:22;9.80;;;6.80;;
26588;SDS011;14235;48.532;8.722;2023-02-28T08:41:48;9.23;;;7.00;;
26588;SDS011;14235;48.532;8.722;2023-02-28T08:44:13;8.50;;;6.30;;
26588;SDS011;14235;48.532;8.722;2023-02-28T08:46:39;8.37;;;6.80;;
26588;SDS011;14235;48.532;8.722;2023-02-28T08:49:04;9.47;;;7.33;;
26588;SDS011;14235;48.532;8.722;2023-02-28T08:51:30;9.93;;;7.40;;
26588;SDS011;14235;48.532;8.722;2023-02-28T08:53:58;8.33;;;7.23;;
26588;SDS011;14235;48.532;8.722;2023-02-28T08:56:25;10.83;;;7.40;;
26588;SDS011;14235;48.532;8.722;2023-02-28T08:58:51;9.43;;;7.33;;
26588;SDS011;14235;48.532;8.722;2023-02-28T09:01:29;8.67;;;7.50;;
26588;SDS011;14235;48.532;8.722;2023-02-28T09:03:56;9.13;;;7.77;;
26588;SDS011;14235;48.532;8.722;2023-02-28T09:06:23;10.33;;;7.67;;
26588;SDS011;14235;48.532;8.722;2023-02-28T09:08:50;8.27;;;7.37;;
26588;SDS011;14235;48.532;8.722;2023-02-28T09:11:16;9.63;;;7.77;;
26588;SDS011;14235;48.532;8.722;2023-02-28T09:13:43;8.90;;;7.83;;
26588;SDS011;14235;48.532;8.722;2023-02-28T09:16:11;10.07;;;7.37;;
26588;SDS011;14235;48.532;8.722;2023-02-28T09:18:38;14.03;;;8.43;;
26588;SDS011;14235;48.532;8.722;2023-02-28T09:21:04;8.67;;;7.70;;
26588;SDS011;14235;48.532;8.722;2023-02-28T09:23:35;8.50;;;7.57;;
26588;SDS011;14235;48.532;8.722;2023-02-28T09:26:03;14.20;;;9.00;;
26588;SDS011;14235;48.532;8.722;2023-02-28T09:28:29;12.20;;;8.33;;
26588;SDS011;14235;48.532;8.722;2023-02-28T09:30:54;11.80;;;8.57;;
26588;SDS011;14235;48.532;8.722;2023-02-28T09:33:22;11.23;;;9.00;;
26588;SDS011;14235;48.532;8.722;2023-02-28T09:35:48;11.63;;;8.97;;
26588;SDS011;14235;48.532;8.722;2023-02-28T09:38:14;12.63;;;8.43;;
26588;SDS011;14235;48.532;8.722;2023-02-28T09:40:51;9.20;;;7.60;;
26588;SDS011;14235;48.532;8.722;2023-02-28T09:43:21;10.37;;;8.20;;
26588;SDS011;14235;48.532;8.722;2023-02-28T09:45:50;12.57;;;7.83;;
26588;SDS011;14235;48.532;8.722;2023-02-28T09:48:26;10.17;;;7.70;;
26588;SDS011;14235;48.532;8.722;2023-02-28T09:51:01;9.93;;;7.57;;
26588;SDS011;14235;48.532;8.722;2023-02-28T09:53:30;8.87;;;7.10;;
26588;SDS011;14235;48.532;8.722;2023-02-28T09:56:01;8.43;;;7.37;;
26588;SDS011;14235;48.532;8.722;2023-02-28T10:04:16;10.97;;;7.73;;
26588;SDS011;14235;48.532;8.722;2023-02-28T10:07:02;8.70;;;7.67;;
26588;SDS011;14235;48.532;8.722;2023-02-28T10:09:42;15.20;;;8.83;;
26588;SDS011;14235;48.532;8.722;2023-02-28T10:12:11;11.80;;;8.00;;
26588;SDS011;14235;48.532;8.722;2023-02-28T10:14:39;12.33;;;7.63;;
26588;SDS011;14235;48.532;8.722;2023-02-28T10:17:14;10.70;;;7.97;;
26588;SDS011;14235;48.532;8.722;2023-02-28T10:20:01;11.20;;;8.27;;
26588;SDS011;14235;48.532;8.722;2023-02-28T10:25:33;9.67;;;7.97;;
26588;SDS011;14235;48.532;8.722;2023-02-28T10:28:13;10.33;;;7.20;;
26588;SDS011;14235;48.532;8.722;2023-02-28T10:30:42;11.20;;;8.60;;
26588;SDS011;14235;48.532;8.722;2023-02-28T10:35:59;12.17;;;8.40;;
26588;SDS011;14235;48.532;8.722;2023-02-28T10:38:28;17.13;;;8.63;;
26588;SDS011;14235;48.532;8.722;2023-02-28T10:41:11;9.83;;;8.00;;
26588;SDS011;14235;48.532;8.722;2023-02-28T10:43:43;10.30;;;8.30;;
26588;SDS011;14235;48.532;8.722;2023-02-28T10:48:39;11.97;;;8.83;;
26588;SDS011;14235;48.532;8.722;2023-02-28T10:51:13;11.10;;;7.87;;
26588;SDS011;14235;48.532;8.722;2023-02-28T10:53:45;11.27;;;8.17;;
26588;SDS011;14235;48.532;8.722;2023-02-28T10:56:23;10.40;;;8.33;;
26588;SDS011;14235;48.532;8.722;2023-02-28T10:58:57;11.90;;;7.60;;
26588;SDS011;14235;48.532;8.722;2023-02-28T11:01:27;10.67;;;8.00;;
26588;SDS011;14235;48.532;8.722;2023-02-28T11:06:46;9.90;;;7.67;;
26588;SDS011;14235;48.532;8.722;2023-02-28T11:09:27;14.90;;;9.07;;
26588;SDS011;14235;48.532;8.722;2023-02-28T11:12:23;12.17;;;8.23;;
26588;SDS011;14235;48.532;8.722;2023-02-28T11:14:54;8.67;;;7.60;;
26588;SDS011;14235;48.532;8.722;2023-02-28T11:17:30;14.23;;;10.10;;
26588;SDS011;14235;48.532;8.722;2023-02-28T11:19:58;11.93;;;8.63;;
26588;SDS011;14235;48.532;8.722;2023-02-28T11:22:29;9.23;;;7.37;;
26588;SDS011;14235;48.532;8.722;2023-02-28T11:24:58;9.37;;;7.80;;
26588;SDS011;14235;48.532;8.722;2023-02-28T11:29:55;9.97;;;8.43;;
26588;SDS011;14235;48.532;8.722;2023-02-28T11:32:23;11.23;;;8.90;;
26588;SDS011;14235;48.532;8.722;2023-02-28T11:35:04;11.23;;;8.53;;
26588;SDS011;14235;48.532;8.722;2023-02-28T11:37:42;10.80;;;8.13;;
26588;SDS011;14235;48.532;8.722;2023-02-28T11:40:20;10.30;;;8.50;;
26588;SDS011;14235;48.532;8.722;2023-02-28T11:48:27;10.00;;;8.07;;
26588;SDS011;14235;48.532;8.722;2023-02-28T11:51:10;8.47;;;7.07;;
26588;SDS011;14235;48.532;8.722;2023-02-28T11:53:55;8.73;;;7.67;;
26588;SDS011;14235;48.532;8.722;2023-02-28T11:56:44;9.90;;;7.67;;
26588;SDS011;14235;48.532;8.722;2023-02-28T12:02:14;8.83;;;7.70;;
26588;SDS011;14235;48.532;8.722;2023-02-28T12:04:53;11.27;;;7.80;;
26588;SDS011;14235;48.532;8.722;2023-02-28T12:07:43;8.73;;;7.57;;
26588;SDS011;14235;48.532;8.722;2023-02-28T12:12:47;11.00;;;8.50;;
26588;SDS011;14235;48.532;8.722;2023-02-28T12:15:29;11.10;;;8.03;;
26588;SDS011;14235;48.532;8.722;2023-02-28T12:26:36;9.03;;;8.10;;
26588;SDS011;14235;48.532;8.722;2023-02-28T12:29:09;9.10;;;8.20;;
26588;SDS011;14235;48.532;8.722;2023-02-28T12:31:49;10.37;;;8.60;;
26588;SDS011;14235;48.532;8.722;2023-02-28T12:34:22;12.70;;;8.67;;
26588;SDS011;14235;48.532;8.722;2023-02-28T12:36:52;9.13;;;8.00;;
26588;SDS011;14235;48.532;8.722;2023-02-28T12:39:23;10.70;;;8.53;;
26588;SDS011;14235;48.532;8.722;2023-02-28T12:42:01;8.90;;;8.00;;
26588;SDS011;14235;48.532;8.722;2023-02-28T12:47:09;10.40;;;8.17;;
26588;SDS011;14235;48.532;8.722;2023-02-28T12:52:08;11.97;;;8.57;;
26588;SDS011;14235;48.532;8.722;2023-02-28T12:54:44;11.27;;;7.87;;
26588;SDS011;14235;48.532;8.722;2023-02-28T12:57:25;9.63;;;8.60;;
26588;SDS011;14235;48.532;8.722;2023-02-28T13:00:04;9.27;;;7.93;;
26588;SDS011;14235;48.532;8.722;2023-02-28T13:10:42;9.43;;;8.03;;
26588;SDS011;14235;48.532;8.722;2023-02-28T13:13:22;10.67;;;8.40;;
26588;SDS011;14235;48.532;8.722;2023-02-28T13:16:01;9.87;;;8.83;;
26588;SDS011;14235;48.532;8.722;2023-02-28T13:18:36;10.30;;;7.67;;
26588;SDS011;14235;48.532;8.722;2023-02-28T13:21:04;9.65;;;8.30;;
26588;SDS011;14235;48.532;8.722;2023-02-28T13:26:11;11.50;;;8.35;;
26588;SDS011;14235;48.532;8.722;2023-02-28T13:31:23;10.77;;;8.10;;
26588;SDS011;14235;48.532;8.722;2023-02-28T13:39:44;9.27;;;8.27;;
26588;SDS011;14235;48.532;8.722;2023-02-28T13:42:05;11.18;;;8.93;;
26588;SDS011;14235;48.532;8.722;2023-02-28T13:45:29;9.35;;;7.85;;
26588;SDS011;14235;48.532;8.722;2023-02-28T13:58:36;10.40;;;7.83;;
26588;SDS011;14235;48.532;8.722;2023-02-28T14:06:50;9.57;;;7.53;;
26588;SDS011;14235;48.532;8.722;2023-02-28T14:09:23;8.63;;;7.80;;
26588;SDS011;14235;48.532;8.722;2023-02-28T14:11:55;9.40;;;7.70;;
26588;SDS011;14235;48.532;8.722;2023-02-28T14:17:05;9.20;;;8.13;;
26588;SDS011;14235;48.532;8.722;2023-02-28T14:19:32;8.43;;;7.53;;
26588;SDS011;14235;48.532;8.722;2023-02-28T14:36:41;8.43;;;7.63;;
26588;SDS011;14235;48.532;8.722;2023-02-28T14:39:10;9.68;;;8.13;;
26588;SDS011;14235;48.532;8.722;2023-02-28T14:41:38;8.57;;;7.72;;
26588;SDS011;14235;48.532;8.722;2023-02-28T14:46:49;8.70;;;7.78;;
26588;SDS011;14235;48.532;8.722;2023-02-28T14:49:41;8.80;;;7.90;;
26588;SDS011;14235;48.532;8.722;2023-02-28T14:52:23;8.75;;;7.85;;
26588;SDS011;14235;48.532;8.722;2023-02-28T14:54:53;9.15;;;8.18;;
26588;SDS011;14235;48.532;8.722;2023-02-28T14:57:25;9.25;;;8.25;;
26588;SDS011;14235;48.532;8.722;2023-02-28T15:00:36;10.65;;;8.50;;
26588;SDS011;14235;48.532;8.722;2023-02-28T15:02:46;12.13;;;8.27;;
26588;SDS011;14235;48.532;8.722;2023-02-28T15:07:38;10.93;;;8.80;;
26588;SDS011;14235;48.532;8.722;2023-02-28T15:12:32;9.15;;;8.07;;
26588;SDS011;14235;48.532;8.722;2023-02-28T15:14:59;8.88;;;7.97;;
26588;SDS011;14235;48.532;8.722;2023-02-28T15:17:24;10.68;;;7.93;;
26588;SDS011;14235;48.532;8.722;2023-02-28T15:19:51;9.60;;;8.60;;
26588;SDS011;14235;48.532;8.722;2023-02-28T15:22:19;9.55;;;8.55;;
26588;SDS011;14235;48.532;8.722;2023-02-28T15:25:00;8.82;;;7.93;;
26588;SDS011;14235;48.532;8.722;2023-02-28T15:27:29;10.38;;;8.73;;
26588;SDS011;14235;48.532;8.722;2023-02-28T15:29:59;10.43;;;8.48;;
26588;SDS011;14235;48.532;8.722;2023-02-28T15:32:31;12.20;;;8.05;;
26588;SDS011;14235;48.532;8.722;2023-02-28T15:34:59;12.02;;;8.82;;
26588;SDS011;14235;48.532;8.722;2023-02-28T15:37:48;10.50;;;9.07;;
26588;SDS011;14235;48.532;8.722;2023-02-28T15:40:29;9.88;;;8.13;;
26588;SDS011;14235;48.532;8.722;2023-02-28T15:43:13;9.45;;;8.45;;
26588;SDS011;14235;48.532;8.722;2023-02-28T15:48:16;15.60;;;8.82;;
26588;SDS011;14235;48.532;8.722;2023-02-28T15:50:51;9.07;;;8.13;;
26588;SDS011;14235;48.532;8.722;2023-02-28T15:53:30;10.10;;;8.15;;
26588;SDS011;14235;48.532;8.722;2023-02-28T15:56:00;10.52;;;8.40;;
26588;SDS011;14235;48.532;8.722;2023-02-28T15:58:28;9.23;;;8.32;;
26588;SDS011;14235;48.532;8.722;2023-02-28T16:01:05;11.20;;;8.63;;
26588;SDS011;14235;48.532;8.722;2023-02-28T16:03:44;9.67;;;8.67;;
26588;SDS011;14235;48.532;8.722;2023-02-28T16:06:21;9.27;;;8.35;;
26588;SDS011;14235;48.532;8.722;2023-02-28T16:09:01;9.60;;;8.07;;
26588;SDS011;14235;48.532;8.722;2023-02-28T16:11:28;9.27;;;8.30;;
26588;SDS011;14235;48.532;8.722;2023-02-28T16:13:54;11.23;;;8.87;;
26588;SDS011;14235;48.532;8.722;2023-02-28T16:16:20;11.65;;;8.45;;
26588;SDS011;14235;48.532;8.722;2023-02-28T16:18:49;8.90;;;8.00;;
26588;SDS011;14235;48.532;8.722;2023-02-28T16:21:15;12.43;;;8.43;;
26588;SDS011;14235;48.532;8.722;2023-02-28T16:23:41;8.68;;;7.78;;
26588;SDS011;14235;48.532;8.722;2023-02-28T16:26:06;9.50;;;8.00;;
26588;SDS011;14235;48.532;8.722;2023-02-28T16:28:34;15.50;;;9.65;;
26588;SDS011;14235;48.532;8.722;2023-02-28T16:31:02;11.17;;;9.03;;
26588;SDS011;14235;48.532;8.722;2023-02-28T16:33:32;9.98;;;8.50;;
26588;SDS011;14235;48.532;8.722;2023-02-28T16:35:58;10.33;;;8.43;;
26588;SDS011;14235;48.532;8.722;2023-02-28T16:38:24;9.67;;;8.60;;
26588;SDS011;14235;48.532;8.722;2023-02-28T16:40:50;9.10;;;7.80;;
26588;SDS011;14235;48.532;8.722;2023-02-28T16:43:22;11.73;;;8.80;;
26588;SDS011;14235;48.532;8.722;2023-02-28T16:45:55;12.50;;;8.87;;
26588;SDS011;14235;48.532;8.722;2023-02-28T16:48:23;13.30;;;9.83;;
26588;SDS011;14235;48.532;8.722;2023-02-28T16:50:49;14.80;;;11.03;;
26588;SDS011;14235;48.532;8.722;2023-02-28T16:53:15;16.07;;;11.60;;
26588;SDS011;14235;48.532;8.722;2023-02-28T16:55:41;21.50;;;13.67;;
26588;SDS011;14235;48.532;8.722;2023-02-28T16:58:06;18.00;;;12.47;;
26588;SDS011;14235;48.532;8.722;2023-02-28T17:00:38;17.10;;;12.07;;
26588;SDS011;14235;48.532;8.722;2023-02-28T17:03:04;12.57;;;9.37;;
26588;SDS011;14235;48.532;8.722;2023-02-28T17:05:33;15.07;;;9.60;;
26588;SDS011;14235;48.532;8.722;2023-02-28T17:08:02;11.70;;;8.70;;
26588;SDS011;14235;48.532;8.722;2023-02-28T17:10:28;12.27;;;9.47;;
26588;SDS011;14235;48.532;8.722;2023-02-28T17:12:54;14.03;;;9.57;;
26588;SDS011;14235;48.532;8.722;2023-02-28T17:15:19;12.60;;;9.87;;
26588;SDS011;14235;48.532;8.722;2023-02-28T17:17:46;13.37;;;9.67;;
26588;SDS011;14235;48.532;8.722;2023-02-28T17:20:13;10.27;;;9.03;;
26588;SDS011;14235;48.532;8.722;2023-02-28T17:22:47;10.20;;;9.10;;